Time;durP1;ratioP1;P1;durP2;ratioP2;P2;SDS_P1;SDS_P2;PMS_P1;PMS_P2;Temp;Humidity;BMP_temperature;BMP_pressure;BME280_temperature;BME280_humidity;BME280_pressure;Samples;Min_cycle;Max_cycle;Signal;HPM_P1;HPM_P2
2021/07/12 00:02:13;;;;;;;2.70;1.58;;;;;;;25.00;52.44;100178.84;5023315;28;20484;-82
2021/07/12 00:05:18;;;;;;;5.72;1.98;;;;;;;24.98;52.50;100177.41;5022577;28;20397;-82
2021/07/12 00:08:23;;;;;;;8.57;2.00;;;;;;;24.80;53.21;100177.41;5010516;28;20045;-80
2021/07/12 00:11:28;;;;;;;8.55;2.20;;;;;;;24.74;53.42;100178.31;5021331;28;20049;-80
2021/07/12 00:14:32;;;;;;;6.90;1.90;;;;;;;24.73;53.01;100184.88;5023257;28;20076;-82
2021/07/12 00:17:37;;;;;;;4.43;2.10;;;;;;;24.85;52.81;100174.81;5024562;28;20052;-82
2021/07/12 00:20:41;;;;;;;4.13;2.03;;;;;;;24.84;52.92;100175.88;5022817;28;20133;-82
2021/07/12 00:23:49;;;;;;;5.75;2.40;;;;;;;24.70;53.46;100177.94;5021467;28;20052;-82
2021/07/12 00:26:53;;;;;;;6.65;2.15;;;;;;;24.58;53.33;100180.63;5022864;28;20057;-83
2021/07/12 00:29:57;;;;;;;6.95;2.22;;;;;;;24.57;54.00;100189.06;5021304;28;20096;-80
2021/07/12 00:33:02;;;;;;;3.35;2.00;;;;;;;24.57;53.69;100200.88;5020917;28;20053;-81
2021/07/12 00:36:07;;;;;;;4.35;2.35;;;;;;;24.46;54.00;100192.59;5020575;28;20045;-81
2021/07/12 00:39:11;;;;;;;6.95;2.40;;;;;;;24.48;54.48;100184.97;5020551;28;20066;-82
2021/07/12 00:42:16;;;;;;;5.53;2.42;;;;;;;24.57;54.46;100187.16;5008790;28;20048;-81
2021/07/12 00:45:24;;;;;;;7.60;2.50;;;;;;;24.54;54.28;100190.38;5020697;28;20093;-82
2021/07/12 00:48:40;;;;;;;5.85;1.95;;;;;;;24.55;54.14;100188.47;5010066;28;20472;-80
2021/07/12 00:51:46;;;;;;;3.50;1.95;;;;;;;24.61;53.86;100184.81;5009037;28;20057;-80
2021/07/12 00:54:50;;;;;;;5.43;1.98;;;;;;;24.72;53.66;100184.03;5022215;28;20385;-81
2021/07/12 00:57:56;;;;;;;3.63;1.77;;;;;;;24.82;53.23;100189.00;5030327;28;20073;-79
2021/07/12 01:01:04;;;;;;;3.08;1.42;;;;;;;24.94;52.89;100198.13;5019474;28;20393;-82
2021/07/12 01:04:09;;;;;;;3.60;1.88;;;;;;;24.71;53.25;100189.75;5004981;28;20081;-80
2021/07/12 01:07:15;;;;;;;5.13;2.40;;;;;;;24.68;53.61;100195.72;5034338;28;20052;-81
2021/07/12 01:10:22;;;;;;;2.88;1.80;;;;;;;24.64;53.99;100189.81;5037407;28;20064;-82
2021/07/12 01:13:39;;;;;;;4.57;1.83;;;;;;;24.50;53.97;100182.81;5037084;28;20060;-82
2021/07/12 01:17:10;;;;;;;6.00;2.00;;;;;;;24.45;54.08;100191.75;5037902;28;20064;-81
2021/07/12 01:20:58;;;;;;;3.85;1.83;;;;;;;24.32;54.63;100196.56;5037019;28;20052;-82
2021/07/12 01:24:40;;;;;;;5.65;1.90;;;;;;;24.23;54.60;100203.38;5038966;28;20420;-80
2021/07/12 01:28:15;;;;;;;3.47;1.92;;;;;;;24.11;54.91;100203.31;5041296;28;20028;-82
2021/07/12 01:32:00;;;;;;;3.80;2.00;;;;;;;23.84;56.04;100199.09;5041899;28;20048;-81
2021/07/12 01:35:32;;;;;;;5.55;1.90;;;;;;;23.79;55.96;100208.00;5037082;28;20049;-79
2021/07/12 01:39:03;;;;;;;6.03;2.17;;;;;;;23.69;56.25;100199.44;5035695;28;20492;-81
2021/07/12 01:42:27;;;;;;;3.97;1.90;;;;;;;23.43;56.56;100202.34;5036779;28;20487;-81
2021/07/12 01:45:51;;;;;;;3.33;1.73;;;;;;;23.24;57.35;100217.00;5035884;28;20044;-79
2021/07/12 01:49:36;;;;;;;4.13;2.22;;;;;;;23.28;57.42;100219.06;5036341;28;20068;-80
2021/07/12 01:53:00;;;;;;;4.57;1.80;;;;;;;23.23;57.70;100209.84;5035996;28;20056;-82
2021/07/12 01:56:20;;;;;;;5.85;2.15;;;;;;;23.20;57.10;100208.41;5034666;28;20049;-82
2021/07/12 01:59:52;;;;;;;4.07;1.80;;;;;;;23.15;57.22;100210.94;5035341;28;20049;-80
2021/07/12 02:02:58;;;;;;;3.53;1.80;;;;;;;23.11;57.58;100217.91;5034905;28;20057;-79
2021/07/12 02:06:14;;;;;;;4.13;2.05;;;;;;;22.98;57.41;100223.47;5036272;28;20135;-81
2021/07/12 02:09:19;;;;;;;4.35;2.10;;;;;;;23.10;57.20;100218.97;5036639;28;20052;-79
2021/07/12 02:12:33;;;;;;;6.00;2.22;;;;;;;23.12;57.67;100216.03;5035648;28;20056;-81
2021/07/12 02:15:39;;;;;;;6.65;2.38;;;;;;;23.11;57.19;100215.16;5035252;28;20401;-80
2021/07/12 02:19:01;;;;;;;3.40;1.95;;;;;;;23.19;57.01;100223.13;5014365;28;20056;-82
2021/07/12 02:22:12;;;;;;;4.13;1.90;;;;;;;23.17;57.14;100229.91;5035313;28;20428;-81
2021/07/12 02:25:30;;;;;;;2.88;1.90;;;;;;;23.31;56.82;100220.53;5036061;28;20053;-80
2021/07/12 02:28:35;;;;;;;4.05;1.70;;;;;;;23.50;56.10;100237.94;5037878;28;20045;-81
2021/07/12 02:31:41;;;;;;;4.57;2.03;;;;;;;23.63;55.56;100235.09;5038553;28;20064;-81
2021/07/12 02:34:48;;;;;;;7.70;1.88;;;;;;;23.75;55.67;100245.13;5035841;28;20048;-80
2021/07/12 02:37:55;;;;;;;4.68;1.90;;;;;;;23.79;55.45;100246.38;5034843;28;20044;-80
2021/07/12 02:41:01;;;;;;;3.38;1.95;;;;;;;23.81;55.39;100251.63;5034708;28;20057;-79
2021/07/12 02:44:08;;;;;;;10.65;1.88;;;;;;;23.85;55.08;100250.94;5034680;28;20117;-80
2021/07/12 02:47:13;;;;;;;3.55;1.80;;;;;;;23.87;55.24;100246.06;5034271;28;20056;-81
2021/07/12 02:50:20;;;;;;;3.80;2.03;;;;;;;23.80;55.59;100233.50;5033571;28;20440;-82
2021/07/12 02:53:35;;;;;;;5.75;1.98;;;;;;;23.69;56.56;100243.28;5034134;28;20424;-82
2021/07/12 02:56:40;;;;;;;4.65;2.03;;;;;;;23.71;56.88;100248.53;5034423;28;20068;-82
2021/07/12 02:59:44;;;;;;;3.75;2.00;;;;;;;23.70;56.57;100239.47;5033423;28;20052;-81
2021/07/12 03:02:50;;;;;;;4.78;2.30;;;;;;;23.74;56.45;100242.63;5033359;28;20385;-81
2021/07/12 03:06:05;;;;;;;3.58;2.10;;;;;;;23.73;56.43;100240.94;5033208;28;20061;-80
2021/07/12 03:09:13;;;;;;;5.63;2.00;;;;;;;23.78;56.96;100252.91;5033195;28;20053;-81
2021/07/12 03:12:46;;;;;;;5.05;2.15;;;;;;;23.84;55.66;100273.13;5033593;28;20057;-79
2021/07/12 03:15:51;;;;;;;6.70;2.28;;;;;;;23.80;54.73;100255.44;5033295;28;20511;-80
2021/07/12 03:19:02;;;;;;;3.42;1.88;;;;;;;23.53;54.87;100249.28;5033095;28;20418;-80
2021/07/12 03:22:10;;;;;;;3.20;2.00;;;;;;;23.44;54.88;100256.09;5033069;28;20048;-79
2021/07/12 03:25:28;;;;;;;3.75;2.15;;;;;;;23.42;54.82;100260.97;5022945;28;20044;-81
2021/07/12 03:28:36;;;;;;;6.78;1.90;;;;;;;23.45;54.38;100274.25;5033917;28;20056;-81
2021/07/12 03:31:42;;;;;;;6.57;2.03;;;;;;;23.45;54.02;100278.88;5034230;28;20117;-80
2021/07/12 03:34:50;;;;;;;3.38;1.80;;;;;;;23.50;53.39;100306.44;5033661;28;20388;-80
2021/07/12 03:37:55;;;;;;;3.70;2.05;;;;;;;23.56;52.62;100311.03;5033801;28;20052;-80
2021/07/12 03:41:01;;;;;;;5.13;1.73;;;;;;;23.56;52.09;100306.41;5034084;28;20060;-80
2021/07/12 03:44:06;;;;;;;3.47;2.05;;;;;;;23.62;51.10;100286.34;5033290;28;20052;-81
2021/07/12 03:47:29;;;;;;;4.57;1.85;;;;;;;23.60;50.69;100273.94;5033815;28;20060;-80
2021/07/12 03:50:38;;;;;;;5.38;1.70;;;;;;;23.63;50.70;100277.06;5032435;28;20056;-81
2021/07/12 03:53:42;;;;;;;3.15;1.85;;;;;;;23.67;50.14;100299.38;5002062;28;20061;-79
2021/07/12 03:56:47;;;;;;;3.78;1.80;;;;;;;23.66;50.48;100298.53;5014020;28;20053;-80
2021/07/12 03:59:51;;;;;;;5.70;1.83;;;;;;;23.73;49.75;100312.19;5013512;28;20057;-81
2021/07/12 04:02:56;;;;;;;3.40;1.77;;;;;;;23.75;49.58;100318.31;5014091;28;20057;-80
2021/07/12 04:06:01;;;;;;;2.78;1.50;;;;;;;23.84;49.97;100326.06;5024828;28;20428;-79
2021/07/12 04:09:05;;;;;;;4.25;1.98;;;;;;;23.92;51.18;100311.25;5001947;28;20389;-82
2021/07/12 04:12:10;;;;;;;3.63;2.08;;;;;;;23.98;53.11;100298.53;5005409;28;20049;-80
2021/07/12 04:15:16;;;;;;;4.60;2.03;;;;;;;24.13;53.87;100293.59;5015700;28;20401;-80
2021/07/12 04:18:20;;;;;;;7.40;2.53;;;;;;;24.25;55.01;100295.38;5001794;28;20049;-82
2021/07/12 04:21:24;;;;;;;6.65;2.40;;;;;;;24.29;55.32;100291.13;5013901;28;20053;-81
2021/07/12 04:24:29;;;;;;;5.45;2.25;;;;;;;24.47;55.37;100291.16;5013837;28;20501;-80
2021/07/12 04:27:33;;;;;;;6.43;2.45;;;;;;;24.59;55.18;100291.22;5001753;28;20057;-81
2021/07/12 04:30:38;;;;;;;7.43;2.50;;;;;;;24.75;54.82;100300.78;5013809;28;20053;-82
2021/07/12 04:33:42;;;;;;;7.90;2.38;;;;;;;25.00;54.69;100307.94;5003466;28;20053;-82
2021/07/12 04:36:46;;;;;;;8.05;2.72;;;;;;;25.23;54.15;100283.31;5017728;28;20057;-80
2021/07/12 04:39:52;;;;;;;5.13;2.72;;;;;;;25.48;53.60;100263.16;5016986;28;20072;-82
2021/07/12 04:42:56;;;;;;;5.82;2.53;;;;;;;25.80;52.94;100240.63;5036667;28;20061;-82
2021/07/12 04:46:00;;;;;;;5.72;3.15;;;;;;;25.96;52.17;100230.88;5037213;28;20052;-82
2021/07/12 04:49:05;;;;;;;16.88;3.00;;;;;;;26.12;51.90;100218.34;5037026;28;20072;-82
2021/07/12 04:52:09;;;;;;;18.02;2.90;;;;;;;26.39;50.93;100223.13;5037264;28;20504;-79
2021/07/12 04:55:13;;;;;;;8.38;2.67;;;;;;;26.82;49.91;100253.03;5036234;28;20056;-80
2021/07/12 04:58:18;;;;;;;6.60;2.40;;;;;;;27.31;49.09;100286.53;5036728;28;20049;-80
2021/07/12 05:01:23;;;;;;;6.45;2.20;;;;;;;27.53;48.57;100299.44;5036793;28;20048;-81
2021/07/12 05:04:27;;;;;;;8.75;2.40;;;;;;;27.48;47.91;100282.78;5024576;28;20049;-81
2021/07/12 05:07:32;;;;;;;8.77;2.20;;;;;;;27.35;48.84;100283.06;5035569;28;20044;-82
2021/07/12 05:10:40;;;;;;;6.15;2.17;;;;;;;27.93;47.69;100290.22;5035257;28;20409;-80
2021/07/12 05:13:44;;;;;;;6.50;2.28;;;;;;;28.33;46.60;100282.66;5036606;28;20048;-81
2021/07/12 05:16:48;;;;;;;8.32;2.58;;;;;;;28.81;45.55;100274.56;5035011;28;20048;-82
2021/07/12 05:19:53;;;;;;;4.38;2.55;;;;;;;29.26;45.14;100276.28;5033769;28;20523;-80
2021/07/12 05:22:58;;;;;;;5.05;2.08;;;;;;;29.70;43.94;100275.13;5035690;28;20052;-81
2021/07/12 05:26:02;;;;;;;6.88;2.55;;;;;;;29.91;43.12;100301.09;5036556;28;20365;-79
2021/07/12 05:29:06;;;;;;;6.38;2.50;;;;;;;30.58;42.53;100306.94;5036160;28;20044;-80
2021/07/12 05:32:10;;;;;;;6.53;2.30;;;;;;;31.21;40.95;100295.66;5036162;28;20384;-82
2021/07/12 05:35:16;;;;;;;4.60;2.60;;;;;;;31.26;41.63;100306.78;5036281;28;20053;-80
2021/07/12 05:38:20;;;;;;;7.78;2.75;;;;;;;31.55;40.91;100298.03;5036278;28;20060;-82
2021/07/12 05:41:34;;;;;;;9.48;2.58;;;;;;;32.58;39.80;100291.22;5036003;28;20041;-80
2021/07/12 05:44:39;;;;;;;6.97;2.92;;;;;;;33.11;38.68;100284.16;5034202;28;20056;-82
2021/07/12 05:47:43;;;;;;;8.20;2.67;;;;;;;34.00;37.34;100265.25;5035191;28;20060;-80
2021/07/12 05:50:47;;;;;;;7.07;2.50;;;;;;;34.85;35.89;100273.97;5023256;28;20056;-82
2021/07/12 05:53:52;;;;;;;7.30;3.03;;;;;;;34.89;35.91;100272.22;5034608;28;20057;-80
2021/07/12 05:56:56;;;;;;;8.55;2.60;;;;;;;35.13;35.35;100266.69;5035463;28;20052;-81
2021/07/12 06:00:00;;;;;;;7.00;2.95;;;;;;;35.24;34.71;100266.25;5035927;28;20065;-83
2021/07/12 06:03:05;;;;;;;9.45;3.05;;;;;;;34.15;36.05;100263.50;5022804;28;20052;-83
2021/07/12 06:06:12;;;;;;;6.68;2.85;;;;;;;34.60;35.14;100252.75;5034701;28;20511;-82
2021/07/12 06:09:16;;;;;;;5.70;2.50;;;;;;;35.36;34.23;100242.66;5034703;28;20083;-83
2021/07/12 06:12:21;;;;;;;6.53;2.47;;;;;;;36.31;33.00;100237.53;5032232;28;20495;-81
2021/07/12 06:15:26;;;;;;;7.55;2.83;;;;;;;37.34;31.67;100210.81;5033380;28;20056;-83
2021/07/12 06:18:30;;;;;;;5.93;2.33;;;;;;;37.60;30.57;100200.72;5034299;28;20404;-83
2021/07/12 06:21:35;;;;;;;8.95;2.47;;;;;;;38.60;29.28;100202.06;5034824;28;20072;-82
2021/07/12 06:24:39;;;;;;;5.28;2.70;;;;;;;39.17;29.02;100191.72;5034798;28;20044;-83
2021/07/12 06:27:45;;;;;;;5.13;2.50;;;;;;;37.48;31.16;100178.06;5034686;28;20068;-81
2021/07/12 06:30:50;;;;;;;5.30;2.40;;;;;;;37.39;31.37;100154.72;5033897;28;20052;-81
2021/07/12 06:33:55;;;;;;;10.35;2.80;;;;;;;37.49;31.72;100132.91;5032782;28;20056;-81
2021/07/12 06:37:00;;;;;;;9.52;2.80;;;;;;;39.18;28.97;100115.56;5034138;28;20048;-81
2021/07/12 06:40:06;;;;;;;11.52;2.42;;;;;;;39.73;28.68;100120.53;5010134;28;20511;-82
2021/07/12 06:43:10;;;;;;;14.07;3.38;;;;;;;39.99;27.83;100110.84;5032860;28;20053;-80
2021/07/12 06:46:15;;;;;;;9.13;2.90;;;;;;;39.71;28.19;100100.31;5033724;28;20405;-79
2021/07/12 06:49:22;;;;;;;13.63;4.78;;;;;;;39.76;27.70;100105.78;5021493;28;20052;-82
2021/07/12 06:52:26;;;;;;;9.63;2.92;;;;;;;39.91;27.51;100094.81;4994569;28;20512;-81
2021/07/12 06:55:31;;;;;;;6.78;1.98;;;;;;;39.97;27.52;100099.13;4993326;28;20065;-79
2021/07/12 06:58:36;;;;;;;6.97;2.47;;;;;;;41.31;26.01;100112.31;4993999;28;20049;-80
2021/07/12 07:01:41;;;;;;;13.02;2.55;;;;;;;40.92;26.41;100136.13;4995266;28;20501;-82
2021/07/12 07:04:46;;;;;;;8.25;2.35;;;;;;;42.17;24.82;100140.53;4994611;28;20505;-79
2021/07/12 07:07:51;;;;;;;6.80;2.30;;;;;;;42.61;24.24;100153.78;4983382;28;20045;-81
2021/07/12 07:10:56;;;;;;;6.32;2.20;;;;;;;42.72;24.16;100154.94;4994562;28;20053;-80
2021/07/12 07:14:02;;;;;;;6.72;2.38;;;;;;;44.50;22.22;100150.59;4995297;28;20387;-80
2021/07/12 07:17:06;;;;;;;5.65;2.05;;;;;;;45.00;22.68;100163.97;4995205;28;20057;-80
2021/07/12 07:20:12;;;;;;;6.65;2.40;;;;;;;44.29;23.13;100150.00;4994267;28;20065;-79
2021/07/12 07:23:16;;;;;;;6.28;2.28;;;;;;;46.49;20.87;100167.94;4994919;28;20061;-79
2021/07/12 07:26:21;;;;;;;5.63;1.80;;;;;;;46.04;21.52;100194.28;4994055;28;20069;-79
2021/07/12 07:29:25;;;;;;;4.18;1.58;;;;;;;46.83;20.87;100221.75;4982907;28;20053;-80
2021/07/12 07:32:30;;;;;;;7.05;1.98;;;;;;;46.69;21.01;100206.47;4994591;28;20445;-79
2021/07/12 07:35:34;;;;;;;5.20;2.30;;;;;;;45.50;21.95;100177.28;4995058;28;20061;-80
2021/07/12 07:38:39;;;;;;;5.50;2.10;;;;;;;44.86;22.94;100198.47;4994714;28;20054;-79
2021/07/12 07:41:43;;;;;;;12.85;7.68;;;;;;;43.07;24.52;100214.63;4993495;28;20069;-80
2021/07/12 07:44:48;;;;;;;16.92;15.13;;;;;;;40.08;27.29;100201.69;4994686;28;20393;-80
2021/07/12 07:47:52;;;;;;;7.72;4.20;;;;;;;41.96;25.75;100201.81;4994856;28;20050;-79
2021/07/12 07:50:57;;;;;;;9.27;2.20;;;;;;;44.29;23.28;100218.78;4993374;28;20504;-82
2021/07/12 07:54:01;;;;;;;8.10;2.22;;;;;;;46.47;20.84;100217.44;4994834;28;20057;-80
2021/07/12 07:57:06;;;;;;;6.15;2.25;;;;;;;48.51;19.43;100220.81;4994005;28;20050;-80
2021/07/12 08:00:14;;;;;;;7.35;2.00;;;;;;;48.40;19.13;100217.84;4994182;28;20053;-79
2021/07/12 08:03:20;;;;;;;8.52;2.08;;;;;;;47.83;19.36;100216.34;4994599;28;20049;-81
2021/07/12 08:06:25;;;;;;;6.57;1.90;;;;;;;48.30;19.05;100205.13;4993478;28;20049;-79
2021/07/12 08:09:30;;;;;;;4.97;2.08;;;;;;;47.86;19.61;100217.59;4998123;28;20046;-81
2021/07/12 08:12:54;;;;;;;8.27;2.10;;;;;;;47.65;19.55;100235.22;4998823;28;20390;-80
2021/07/12 08:15:59;;;;;;;11.63;2.33;;;;;;;48.15;19.13;100223.28;4998285;28;20058;-82
2021/07/12 08:19:04;;;;;;;4.25;1.92;;;;;;;47.07;20.17;100223.34;4998231;28;20485;-81
2021/07/12 08:22:08;;;;;;;7.32;2.03;;;;;;;45.17;21.43;100223.94;4997282;28;20045;-79
2021/07/12 08:25:13;;;;;;;7.20;2.03;;;;;;;42.69;23.97;100220.59;4998184;28;20057;-79
2021/07/12 08:28:19;;;;;;;6.13;2.28;;;;;;;41.84;25.72;100202.59;4997102;28;20065;-78
2021/07/12 08:31:24;;;;;;;6.60;2.60;;;;;;;40.56;27.04;100200.56;4997949;28;20409;-79
2021/07/12 08:34:28;;;;;;;10.23;2.70;;;;;;;38.82;29.61;100202.84;4998126;28;20049;-78
2021/07/12 08:37:33;;;;;;;8.85;2.88;;;;;;;38.57;30.32;100185.91;4998059;28;20058;-79
2021/07/12 08:40:39;;;;;;;10.88;3.03;;;;;;;37.37;31.09;100194.22;4996921;28;20065;-79
2021/07/12 08:43:44;;;;;;;9.02;2.78;;;;;;;37.34;31.21;100206.06;4997957;28;20390;-79
2021/07/12 08:46:48;;;;;;;9.18;2.95;;;;;;;37.20;31.14;100198.84;4997663;28;20057;-79
2021/07/12 08:49:52;;;;;;;14.18;3.20;;;;;;;35.68;33.00;100200.84;5004377;28;20053;-78
2021/07/12 08:52:57;;;;;;;8.45;2.53;;;;;;;35.41;33.81;100207.09;5037046;28;20129;-79
2021/07/12 08:56:02;;;;;;;9.93;2.70;;;;;;;35.34;33.27;100189.91;5036849;28;20445;-79
2021/07/12 08:59:36;;;;;;;12.60;3.25;;;;;;;34.83;34.50;100194.47;5002262;28;20053;-80
2021/07/12 09:02:40;;;;;;;8.10;2.90;;;;;;;34.94;35.03;100201.59;5036705;28;20377;-79
2021/07/12 09:05:52;;;;;;;9.27;2.83;;;;;;;35.35;34.35;100196.31;5036671;28;20048;-78
2021/07/12 09:09:02;;;;;;;11.50;2.78;;;;;;;35.76;33.51;100187.03;5036881;28;20384;-81
2021/07/12 09:12:16;;;;;;;7.57;2.85;;;;;;;35.78;34.26;100190.34;5036578;28;20053;-81
2021/07/12 09:15:24;;;;;;;5.93;2.60;;;;;;;35.69;33.86;100181.00;5036488;28;20075;-79
2021/07/12 09:18:35;;;;;;;10.07;3.00;;;;;;;35.47;33.95;100183.56;5024456;28;20056;-79
2021/07/12 09:21:48;;;;;;;8.40;2.80;;;;;;;34.86;34.98;100169.63;5036708;28;20060;-78
2021/07/12 09:24:54;;;;;;;9.63;3.00;;;;;;;34.39;36.47;100197.47;5036637;28;20048;-78
2021/07/12 09:27:59;;;;;;;10.80;3.42;;;;;;;34.81;36.09;100191.16;5036521;28;20377;-80
2021/07/12 09:31:24;;;;;;;6.85;3.90;;;;;;;33.90;37.85;100187.31;5024331;28;20048;-79
2021/07/12 09:34:29;;;;;;;13.32;3.42;;;;;;;33.91;37.90;100189.00;5036149;28;20056;-80
2021/07/12 09:37:36;;;;;;;10.88;2.95;;;;;;;34.01;37.10;100188.06;5024197;28;20049;-79
2021/07/12 09:40:40;;;;;;;15.35;3.47;;;;;;;34.03;36.79;100186.66;5036146;28;20056;-78
2021/07/12 09:43:46;;;;;;;9.25;3.75;;;;;;;34.56;36.29;100192.31;5035759;28;20056;-79
2021/07/12 09:46:51;;;;;;;10.07;3.13;;;;;;;34.36;37.00;100195.28;5035612;28;20048;-80
2021/07/12 09:50:09;;;;;;;17.55;3.15;;;;;;;34.37;36.53;100203.34;5035568;28;20052;-79
2021/07/12 09:53:26;;;;;;;7.60;2.83;;;;;;;34.61;36.32;100206.19;5023315;28;20061;-79
2021/07/12 09:56:30;;;;;;;15.48;3.13;;;;;;;34.69;36.32;100216.66;5035717;28;20052;-81
2021/07/12 09:59:36;;;;;;;8.32;2.60;;;;;;;34.54;36.13;100214.88;5035886;28;20072;-80
2021/07/12 10:02:41;;;;;;;5.57;2.53;;;;;;;34.61;36.32;100225.72;5023981;28;20056;-81
2021/07/12 10:05:47;;;;;;;6.20;2.38;;;;;;;34.62;36.20;100222.63;5035886;28;20060;-79
2021/07/12 10:08:52;;;;;;;7.28;2.55;;;;;;;34.83;35.24;100216.81;5035573;28;20068;-81
2021/07/12 10:11:56;;;;;;;7.50;2.47;;;;;;;34.52;35.85;100228.28;5035482;28;20056;-79
2021/07/12 10:15:00;;;;;;;7.93;2.47;;;;;;;34.59;35.98;100216.81;5035721;28;20060;-79
2021/07/12 10:18:07;;;;;;;12.60;2.70;;;;;;;34.16;37.12;100215.81;5035696;28;20052;-81
2021/07/12 10:21:11;;;;;;;19.88;3.42;;;;;;;33.48;37.75;100211.31;5033186;28;20056;-81
2021/07/12 10:24:21;;;;;;;7.80;3.25;;;;;;;33.53;36.94;100195.38;5020581;28;20128;-81
2021/07/12 10:27:27;;;;;;;8.60;2.80;;;;;;;33.34;37.69;100194.41;5032747;28;20052;-80
2021/07/12 10:30:41;;;;;;;10.85;2.92;;;;;;;33.17;37.50;100194.81;5033347;28;20491;-81
2021/07/12 10:33:45;;;;;;;5.13;2.63;;;;;;;33.36;37.92;100192.16;5035067;28;20510;-79
2021/07/12 10:36:58;;;;;;;6.45;2.90;;;;;;;33.07;38.10;100182.88;5034823;28;20048;-79
2021/07/12 10:40:05;;;;;;;6.45;2.33;;;;;;;33.52;37.62;100179.81;5022687;28;20048;-79
2021/07/12 10:43:10;;;;;;;5.03;2.40;;;;;;;33.70;37.08;100178.34;5022754;28;20389;-80
2021/07/12 10:46:30;;;;;;;6.55;2.50;;;;;;;33.61;36.82;100174.47;5022488;28;20112;-80
2021/07/12 10:49:37;;;;;;;8.43;2.45;;;;;;;33.77;35.81;100164.91;5034859;28;20388;-81
2021/07/12 10:52:43;;;;;;;5.78;2.67;;;;;;;33.73;36.00;100159.06;5023047;28;20488;-79
2021/07/12 10:56:01;;;;;;;5.22;2.42;;;;;;;33.96;36.18;100144.38;5034726;28;20052;-80
2021/07/12 10:59:05;;;;;;;5.80;2.45;;;;;;;34.11;36.04;100160.16;5034610;28;20056;-79
2021/07/12 11:02:09;;;;;;;6.10;2.58;;;;;;;34.00;36.96;100156.59;5034868;28;20052;-81
2021/07/12 11:05:15;;;;;;;6.32;3.25;;;;;;;33.84;36.85;100146.72;5022754;28;20381;-79
2021/07/12 11:08:42;;;;;;;5.05;2.63;;;;;;;33.96;36.87;100144.38;5034441;28;20072;-80
2021/07/12 11:11:46;;;;;;;12.35;10.77;;;;;;;34.03;36.35;100142.06;5034540;28;20053;-77
2021/07/12 11:15:09;;;;;;;49.55;44.88;;;;;;;33.93;35.97;100132.97;5034779;28;20049;-80
2021/07/12 11:18:27;;;;;;;6.38;3.97;;;;;;;33.93;36.55;100142.19;5034167;28;20049;-80
2021/07/12 11:21:35;;;;;;;7.32;2.90;;;;;;;33.80;37.97;100131.72;5034367;28;20056;-80
2021/07/12 11:25:05;;;;;;;9.23;3.70;;;;;;;33.67;37.58;100142.69;5034070;28;20408;-79
2021/07/12 11:28:17;;;;;;;10.38;3.30;;;;;;;33.43;38.15;100137.84;5022396;28;20052;-80
2021/07/12 11:31:56;;;;;;;5.28;2.97;;;;;;;33.22;38.48;100139.13;5034565;28;20045;-79
2021/07/12 11:35:00;;;;;;;10.18;3.30;;;;;;;33.27;38.43;100132.69;5021947;28;20045;-79
2021/07/12 11:38:06;;;;;;;8.68;3.75;;;;;;;32.82;38.90;100132.91;5010877;28;20044;-79
2021/07/12 11:41:10;;;;;;;6.63;3.65;;;;;;;32.88;38.63;100121.50;5033748;28;20053;-78
2021/07/12 11:44:16;;;;;;;11.15;3.10;;;;;;;33.03;38.76;100117.81;5021945;28;20045;-77
2021/07/12 11:47:25;;;;;;;7.18;2.88;;;;;;;33.07;37.59;100121.69;5034008;28;20052;-78
2021/07/12 11:50:32;;;;;;;9.52;2.88;;;;;;;32.98;37.79;100118.66;5033501;28;20123;-78
2021/07/12 11:53:37;;;;;;;8.40;2.88;;;;;;;32.82;38.03;100121.78;5034159;28;20060;-79
2021/07/12 11:56:56;;;;;;;7.18;2.60;;;;;;;32.94;39.05;100125.06;5033874;28;20053;-80
2021/07/12 12:00:00;;;;;;;5.35;2.67;;;;;;;33.19;38.71;100131.34;5034053;28;20104;-79
2021/07/12 12:03:09;;;;;;;12.00;3.00;;;;;;;33.13;38.37;100126.09;5033561;28;20380;-79
2021/07/12 12:06:23;;;;;;;9.95;3.47;;;;;;;32.94;38.12;100134.25;5033962;28;20045;-78
2021/07/12 12:09:27;;;;;;;7.15;3.25;;;;;;;32.90;38.17;100129.53;5021455;28;20045;-78
2021/07/12 12:12:42;;;;;;;8.48;2.55;;;;;;;33.05;38.28;100121.16;5033938;28;20113;-79
2021/07/12 12:15:49;;;;;;;6.70;2.83;;;;;;;33.17;37.86;100107.72;5033780;28;20056;-79
2021/07/12 12:18:55;;;;;;;11.18;3.35;;;;;;;32.91;37.57;100114.53;5034141;28;20052;-79
2021/07/12 12:21:59;;;;;;;6.72;3.28;;;;;;;32.80;38.22;100110.97;5033408;28;20072;-81
2021/07/12 12:25:06;;;;;;;4.55;2.63;;;;;;;32.77;37.98;100101.25;5033439;28;20052;-82
2021/07/12 12:28:25;;;;;;;6.72;2.40;;;;;;;32.67;37.65;100098.53;5033875;28;20076;-82
2021/07/12 12:31:31;;;;;;;6.85;2.80;;;;;;;32.64;37.90;100101.06;5033726;28;20076;-81
2021/07/12 12:34:35;;;;;;;5.35;2.38;;;;;;;32.86;38.36;100098.72;5033610;28;20048;-80
2021/07/12 12:37:41;;;;;;;9.43;2.67;;;;;;;33.06;37.90;100092.22;5034067;28;20056;-79
2021/07/12 12:40:45;;;;;;;6.05;2.92;;;;;;;33.24;38.13;100097.91;5033242;28;20076;-80
2021/07/12 12:44:08;;;;;;;7.75;2.70;;;;;;;33.12;38.46;100083.53;5033469;28;20393;-80
2021/07/12 12:47:26;;;;;;;7.22;2.90;;;;;;;33.32;38.26;100082.56;5021494;28;20052;-79
2021/07/12 12:50:30;;;;;;;10.27;3.38;;;;;;;33.12;37.93;100085.47;5020995;28;20057;-81
2021/07/12 12:53:34;;;;;;;9.38;2.90;;;;;;;33.04;38.35;100074.97;5033718;28;20060;-81
2021/07/12 12:56:49;;;;;;;9.02;2.95;;;;;;;33.11;38.00;100064.38;5036957;28;20392;-79
2021/07/12 13:00:06;;;;;;;4.38;2.50;;;;;;;33.24;38.31;100070.09;5036946;28;20111;-78
2021/07/12 13:03:17;;;;;;;5.75;2.50;;;;;;;33.34;38.43;100049.69;5024895;28;20052;-78
2021/07/12 13:06:22;;;;;;;7.10;3.30;;;;;;;33.00;38.07;100048.81;5036520;28;20040;-82
2021/07/12 13:09:34;;;;;;;7.38;3.10;;;;;;;32.94;38.26;100038.84;5037133;28;20056;-80
2021/07/12 13:12:47;;;;;;;12.80;2.80;;;;;;;33.05;38.27;100040.47;5036405;28;20100;-80
2021/07/12 13:15:51;;;;;;;5.88;2.40;;;;;;;33.11;37.97;100044.91;5036770;28;20056;-80
2021/07/12 13:18:56;;;;;;;13.93;3.83;;;;;;;33.06;38.04;100034.59;5036543;28;20057;-79
2021/07/12 13:22:00;;;;;;;7.07;2.80;;;;;;;33.04;38.34;100033.22;5036470;28;20060;-78
2021/07/12 13:25:11;;;;;;;13.20;9.80;;;;;;;33.10;38.24;100035.72;5024226;28;20048;-79
2021/07/12 13:28:16;;;;;;;14.48;9.63;;;;;;;33.25;37.99;100029.19;5036782;28;20480;-81
2021/07/12 13:31:20;;;;;;;6.90;2.97;;;;;;;33.25;37.72;100030.03;5024353;28;20057;-78
2021/07/12 13:34:24;;;;;;;7.65;3.00;;;;;;;33.30;37.89;100024.41;5024567;28;20060;-82
2021/07/12 13:37:29;;;;;;;8.02;2.97;;;;;;;33.24;38.90;100025.56;5036528;28;20056;-81
2021/07/12 13:40:34;;;;;;;6.07;3.30;;;;;;;33.12;38.94;100019.56;5024044;28;20052;-82
2021/07/12 13:43:39;;;;;;;9.65;3.47;;;;;;;33.47;38.54;100015.63;5036116;28;20057;-80
2021/07/12 13:46:43;;;;;;;7.45;2.90;;;;;;;33.82;38.14;99995.78;5023513;28;20048;-82
2021/07/12 13:49:48;;;;;;;12.05;3.33;;;;;;;33.72;37.14;99997.84;5036109;28;20148;-81
2021/07/12 13:52:57;;;;;;;10.07;3.20;;;;;;;33.32;38.27;100002.69;5036289;28;20056;-81
2021/07/12 13:56:02;;;;;;;6.70;2.92;;;;;;;33.34;38.04;99992.09;5035688;28;20073;-81
2021/07/12 13:59:06;;;;;;;6.05;2.67;;;;;;;33.43;38.52;99981.97;5036132;28;20056;-80
2021/07/12 14:02:13;;;;;;;6.22;2.88;;;;;;;33.52;37.34;99979.38;5035674;28;20056;-80
2021/07/12 14:05:19;;;;;;;7.28;3.00;;;;;;;33.56;37.98;99960.97;5035043;28;20515;-80
2021/07/12 14:08:24;;;;;;;9.05;2.90;;;;;;;33.61;38.56;99969.28;5035323;28;20053;-81
2021/07/12 14:11:28;;;;;;;4.70;2.58;;;;;;;33.68;37.23;99972.53;5035326;28;20052;-80
2021/07/12 14:14:33;;;;;;;10.80;2.70;;;;;;;33.81;37.21;99966.28;5035759;28;20377;-79
2021/07/12 14:17:38;;;;;;;10.50;3.35;;;;;;;33.83;37.14;99965.97;5035312;28;20049;-78
2021/07/12 14:20:42;;;;;;;11.38;3.13;;;;;;;33.76;38.46;99963.53;5022913;28;20056;-80
2021/07/12 14:23:47;;;;;;;4.70;3.25;;;;;;;33.72;38.76;99968.06;5023370;28;20053;-80
2021/07/12 14:26:52;;;;;;;11.02;3.10;;;;;;;33.64;37.72;99963.13;5035494;28;20052;-81
2021/07/12 14:29:56;;;;;;;7.32;3.30;;;;;;;33.37;38.23;99979.53;5023237;28;20053;-79
2021/07/12 14:33:01;;;;;;;5.20;2.50;;;;;;;33.46;38.19;99961.06;5035020;28;20056;-82
2021/07/12 14:36:05;;;;;;;5.03;3.20;;;;;;;33.41;37.79;99977.81;5035048;28;20060;-79